sensor_id;sensor_type;location;lat;lon;timestamp;temperature;humidity
4604;DHT22;2314;48.272;11.562;2024-01-06T00:01:10;5.80;99.90
4604;DHT22;2314;48.272;11.562;2024-01-06T00:03:38;5.80;99.90
4604;DHT22;2314;48.272;11.562;2024-01-06T00:06:06;5.80;99.90
4604;DHT22;2314;48.272;11.562;2024-01-06T00:08:33;5.80;99.90
4604;DHT22;2314;48.272;11.562;2024-01-06T00:11:00;5.80;99.90
4604;DHT22;2314;48.272;11.562;2024-01-06T00:13:29;5.80;99.90
4604;DHT22;2314;48.272;11.562;2024-01-06T00:15:56;5.80;99.90
4604;DHT22;2314;48.272;11.562;2024-01-06T00:18:24;5.80;99.90
4604;DHT22;2314;48.272;11.562;2024-01-06T00:20:51;5.80;99.90
4604;DHT22;2314;48.272;11.562;2024-01-06T00:23:18;5.80;99.90
4604;DHT22;2314;48.272;11.562;2024-01-06T00:25:45;5.70;99.90
4604;DHT22;2314;48.272;11.562;2024-01-06T00:28:12;5.80;99.90
4604;DHT22;2314;48.272;11.562;2024-01-06T00:30:40;5.70;99.90
4604;DHT22;2314;48.272;11.562;2024-01-06T00:33:07;5.70;99.90
4604;DHT22;2314;48.272;11.562;2024-01-06T00:35:34;5.70;99.90
4604;DHT22;2314;48.272;11.562;2024-01-06T00:38:01;5.80;99.90
4604;DHT22;2314;48.272;11.562;2024-01-06T00:40:28;5.70;99.90
4604;DHT22;2314;48.272;11.562;2024-01-06T00:42:55;5.70;99.90
4604;DHT22;2314;48.272;11.562;2024-01-06T00:45:22;5.70;99.90
4604;DHT22;2314;48.272;11.562;2024-01-06T00:47:50;5.70;99.90
4604;DHT22;2314;48.272;11.562;2024-01-06T00:50:17;5.70;99.90
4604;DHT22;2314;48.272;11.562;2024-01-06T00:52:45;5.70;99.90
4604;DHT22;2314;48.272;11.562;2024-01-06T00:55:12;5.70;99.90
4604;DHT22;2314;48.272;11.562;2024-01-06T00:57:39;5.70;99.90
4604;DHT22;2314;48.272;11.562;2024-01-06T01:00:06;5.70;99.90
4604;DHT22;2314;48.272;11.562;2024-01-06T01:02:34;5.70;99.90
4604;DHT22;2314;48.272;11.562;2024-01-06T01:05:02;5.70;99.90
4604;DHT22;2314;48.272;11.562;2024-01-06T01:07:29;5.70;99.90
4604;DHT22;2314;48.272;11.562;2024-01-06T01:09:56;5.70;99.90
4604;DHT22;2314;48.272;11.562;2024-01-06T01:12:23;5.70;99.90
4604;DHT22;2314;48.272;11.562;2024-01-06T01:14:51;5.70;99.90
4604;DHT22;2314;48.272;11.562;2024-01-06T01:17:19;5.70;99.90
4604;DHT22;2314;48.272;11.562;2024-01-06T01:19:46;5.70;99.90
4604;DHT22;2314;48.272;11.562;2024-01-06T01:22:14;5.70;99.90
4604;DHT22;2314;48.272;11.562;2024-01-06T01:24:42;5.70;99.90
4604;DHT22;2314;48.272;11.562;2024-01-06T01:27:09;5.70;99.90
4604;DHT22;2314;48.272;11.562;2024-01-06T01:29:36;5.70;99.90
4604;DHT22;2314;48.272;11.562;2024-01-06T01:32:04;5.70;99.90
4604;DHT22;2314;48.272;11.562;2024-01-06T01:34:32;5.70;99.90
4604;DHT22;2314;48.272;11.562;2024-01-06T01:36:59;5.70;99.90
4604;DHT22;2314;48.272;11.562;2024-01-06T01:39:28;5.70;99.90
4604;DHT22;2314;48.272;11.562;2024-01-06T01:41:55;5.70;99.90
4604;DHT22;2314;48.272;11.562;2024-01-06T01:44:22;5.70;99.90
4604;DHT22;2314;48.272;11.562;2024-01-06T01:46:49;5.70;99.90
4604;DHT22;2314;48.272;11.562;2024-01-06T01:49:16;5.70;99.90
4604;DHT22;2314;48.272;11.562;2024-01-06T01:51:43;5.70;99.90
4604;DHT22;2314;48.272;11.562;2024-01-06T01:54:10;5.80;99.90
4604;DHT22;2314;48.272;11.562;2024-01-06T01:56:39;5.70;99.90
4604;DHT22;2314;48.272;11.562;2024-01-06T01:59:11;5.70;99.90
4604;DHT22;2314;48.272;11.562;2024-01-06T02:01:39;5.70;99.90
4604;DHT22;2314;48.272;11.562;2024-01-06T02:04:06;5.70;99.90
4604;DHT22;2314;48.272;11.562;2024-01-06T02:06:33;5.70;99.90
4604;DHT22;2314;48.272;11.562;2024-01-06T02:09:01;5.70;99.90
4604;DHT22;2314;48.272;11.562;2024-01-06T02:11:28;5.70;99.90
4604;DHT22;2314;48.272;11.562;2024-01-06T02:13:56;5.70;99.90
4604;DHT22;2314;48.272;11.562;2024-01-06T02:16:23;5.70;99.90
4604;DHT22;2314;48.272;11.562;2024-01-06T02:18:50;5.70;99.90
4604;DHT22;2314;48.272;11.562;2024-01-06T02:21:17;5.70;99.90
4604;DHT22;2314;48.272;11.562;2024-01-06T02:23:47;5.60;99.90
4604;DHT22;2314;48.272;11.562;2024-01-06T02:26:14;5.60;99.90
4604;DHT22;2314;48.272;11.562;2024-01-06T02:28:41;5.60;99.90
4604;DHT22;2314;48.272;11.562;2024-01-06T02:31:10;5.70;99.90
4604;DHT22;2314;48.272;11.562;2024-01-06T02:33:37;5.70;99.90
4604;DHT22;2314;48.272;11.562;2024-01-06T02:36:04;5.60;99.90
4604;DHT22;2314;48.272;11.562;2024-01-06T02:38:32;5.60;99.90
4604;DHT22;2314;48.272;11.562;2024-01-06T02:41:00;5.60;99.90
4604;DHT22;2314;48.272;11.562;2024-01-06T02:43:27;5.60;99.90
4604;DHT22;2314;48.272;11.562;2024-01-06T02:45:54;5.60;99.90
4604;DHT22;2314;48.272;11.562;2024-01-06T02:48:21;5.60;99.90
4604;DHT22;2314;48.272;11.562;2024-01-06T02:50:48;5.60;99.90
4604;DHT22;2314;48.272;11.562;2024-01-06T02:53:15;5.60;99.90
4604;DHT22;2314;48.272;11.562;2024-01-06T02:55:42;5.60;99.90
4604;DHT22;2314;48.272;11.562;2024-01-06T02:58:10;5.60;99.90
4604;DHT22;2314;48.272;11.562;2024-01-06T03:00:37;5.50;99.90
4604;DHT22;2314;48.272;11.562;2024-01-06T03:03:04;5.50;99.90
4604;DHT22;2314;48.272;11.562;2024-01-06T03:05:31;5.50;99.90
4604;DHT22;2314;48.272;11.562;2024-01-06T03:07:58;5.50;99.90
4604;DHT22;2314;48.272;11.562;2024-01-06T03:10:26;5.50;99.90
4604;DHT22;2314;48.272;11.562;2024-01-06T03:12:53;5.50;99.90
4604;DHT22;2314;48.272;11.562;2024-01-06T03:15:22;5.50;99.90
4604;DHT22;2314;48.272;11.562;2024-01-06T03:17:49;5.50;99.90
4604;DHT22;2314;48.272;11.562;2024-01-06T03:20:16;5.40;99.90
4604;DHT22;2314;48.272;11.562;2024-01-06T03:22:43;5.40;99.90
4604;DHT22;2314;48.272;11.562;2024-01-06T03:25:10;5.40;99.90
4604;DHT22;2314;48.272;11.562;2024-01-06T03:27:37;5.40;99.90
4604;DHT22;2314;48.272;11.562;2024-01-06T03:30:05;5.40;99.90
4604;DHT22;2314;48.272;11.562;2024-01-06T03:32:34;5.40;99.90
4604;DHT22;2314;48.272;11.562;2024-01-06T03:35:01;5.40;99.90
4604;DHT22;2314;48.272;11.562;2024-01-06T03:37:28;5.30;99.90
4604;DHT22;2314;48.272;11.562;2024-01-06T03:39:55;5.30;99.90
4604;DHT22;2314;48.272;11.562;2024-01-06T03:42:22;5.30;99.90
4604;DHT22;2314;48.272;11.562;2024-01-06T03:44:49;5.30;99.90
4604;DHT22;2314;48.272;11.562;2024-01-06T03:47:16;5.30;99.90
4604;DHT22;2314;48.272;11.562;2024-01-06T03:49:44;5.20;99.90
4604;DHT22;2314;48.272;11.562;2024-01-06T03:52:12;5.20;99.90
4604;DHT22;2314;48.272;11.562;2024-01-06T03:54:39;5.20;99.90
4604;DHT22;2314;48.272;11.562;2024-01-06T03:57:06;5.10;99.90
4604;DHT22;2314;48.272;11.562;2024-01-06T03:59:33;5.10;99.90
4604;DHT22;2314;48.272;11.562;2024-01-06T04:02:00;5.10;99.90
4604;DHT22;2314;48.272;11.562;2024-01-06T04:04:27;5.10;99.90
4604;DHT22;2314;48.272;11.562;2024-01-06T04:06:56;5.10;99.90
4604;DHT22;2314;48.272;11.562;2024-01-06T04:09:23;5.10;99.90
4604;DHT22;2314;48.272;11.562;2024-01-06T04:11:50;5.10;99.90
4604;DHT22;2314;48.272;11.562;2024-01-06T04:14:16;5.10;99.90
4604;DHT22;2314;48.272;11.562;2024-01-06T04:16:43;5.10;99.90
4604;DHT22;2314;48.272;11.562;2024-01-06T04:19:10;5.10;99.90
4604;DHT22;2314;48.272;11.562;2024-01-06T04:21:38;5.10;99.90
4604;DHT22;2314;48.272;11.562;2024-01-06T04:24:07;5.10;99.90
4604;DHT22;2314;48.272;11.562;2024-01-06T04:26:34;5.10;99.90
4604;DHT22;2314;48.272;11.562;2024-01-06T04:29:00;5.10;99.90
4604;DHT22;2314;48.272;11.562;2024-01-06T04:31:27;5.10;99.90
4604;DHT22;2314;48.272;11.562;2024-01-06T04:33:54;5.10;99.90
4604;DHT22;2314;48.272;11.562;2024-01-06T04:36:21;5.10;99.90
4604;DHT22;2314;48.272;11.562;2024-01-06T04:38:49;5.10;99.90
4604;DHT22;2314;48.272;11.562;2024-01-06T04:41:17;5.00;99.90
4604;DHT22;2314;48.272;11.562;2024-01-06T04:43:44;5.00;99.90
4604;DHT22;2314;48.272;11.562;2024-01-06T04:46:11;5.10;99.90
4604;DHT22;2314;48.272;11.562;2024-01-06T04:48:40;5.10;99.90
4604;DHT22;2314;48.272;11.562;2024-01-06T04:51:09;5.00;99.90
4604;DHT22;2314;48.272;11.562;2024-01-06T04:53:36;5.00;99.90
4604;DHT22;2314;48.272;11.562;2024-01-06T04:56:04;5.00;99.90
4604;DHT22;2314;48.272;11.562;2024-01-06T04:58:33;5.00;99.90
4604;DHT22;2314;48.272;11.562;2024-01-06T05:01:00;5.00;99.90
4604;DHT22;2314;48.272;11.562;2024-01-06T05:03:27;5.10;99.90
4604;DHT22;2314;48.272;11.562;2024-01-06T05:05:54;5.10;99.90
4604;DHT22;2314;48.272;11.562;2024-01-06T05:08:21;5.10;99.90
4604;DHT22;2314;48.272;11.562;2024-01-06T05:10:51;5.10;99.90
4604;DHT22;2314;48.272;11.562;2024-01-06T05:13:18;5.10;99.90
4604;DHT22;2314;48.272;11.562;2024-01-06T05:15:47;5.10;99.90
4604;DHT22;2314;48.272;11.562;2024-01-06T05:18:14;5.10;99.90
4604;DHT22;2314;48.272;11.562;2024-01-06T05:20:41;5.00;99.90
4604;DHT22;2314;48.272;11.562;2024-01-06T05:23:09;5.00;99.90
4604;DHT22;2314;48.272;11.562;2024-01-06T05:25:36;4.90;99.90
4604;DHT22;2314;48.272;11.562;2024-01-06T05:28:03;4.90;99.90
4604;DHT22;2314;48.272;11.562;2024-01-06T05:30:30;4.80;99.90
4604;DHT22;2314;48.272;11.562;2024-01-06T05:32:58;4.80;99.90
4604;DHT22;2314;48.272;11.562;2024-01-06T05:35:25;4.70;99.90
4604;DHT22;2314;48.272;11.562;2024-01-06T05:37:52;4.70;99.90
4604;DHT22;2314;48.272;11.562;2024-01-06T05:40:19;4.70;99.90
4604;DHT22;2314;48.272;11.562;2024-01-06T05:42:46;4.70;99.90
4604;DHT22;2314;48.272;11.562;2024-01-06T05:45:13;4.70;99.90
4604;DHT22;2314;48.272;11.562;2024-01-06T05:47:41;4.60;99.90
4604;DHT22;2314;48.272;11.562;2024-01-06T05:50:10;4.50;99.90
4604;DHT22;2314;48.272;11.562;2024-01-06T05:52:37;4.40;99.90
4604;DHT22;2314;48.272;11.562;2024-01-06T05:55:05;4.30;99.90
4604;DHT22;2314;48.272;11.562;2024-01-06T05:57:32;4.30;99.90
4604;DHT22;2314;48.272;11.562;2024-01-06T05:59:59;4.20;99.90
4604;DHT22;2314;48.272;11.562;2024-01-06T06:02:26;4.10;99.90
4604;DHT22;2314;48.272;11.562;2024-01-06T06:04:53;4.10;99.90
4604;DHT22;2314;48.272;11.562;2024-01-06T06:07:21;4.00;99.90
4604;DHT22;2314;48.272;11.562;2024-01-06T06:09:48;4.00;99.90
4604;DHT22;2314;48.272;11.562;2024-01-06T06:12:15;4.00;99.90
4604;DHT22;2314;48.272;11.562;2024-01-06T06:14:42;3.90;99.90
4604;DHT22;2314;48.272;11.562;2024-01-06T06:17:09;3.90;99.90
4604;DHT22;2314;48.272;11.562;2024-01-06T06:19:36;3.90;99.90
4604;DHT22;2314;48.272;11.562;2024-01-06T06:22:04;3.90;99.90
4604;DHT22;2314;48.272;11.562;2024-01-06T06:24:32;3.90;99.90
4604;DHT22;2314;48.272;11.562;2024-01-06T06:26:59;3.90;99.90
4604;DHT22;2314;48.272;11.562;2024-01-06T06:29:26;3.80;99.90
4604;DHT22;2314;48.272;11.562;2024-01-06T06:31:54;3.80;99.90
4604;DHT22;2314;48.272;11.562;2024-01-06T06:34:21;3.90;99.90
4604;DHT22;2314;48.272;11.562;2024-01-06T06:36:48;3.90;99.90
4604;DHT22;2314;48.272;11.562;2024-01-06T06:39:15;3.90;99.90
4604;DHT22;2314;48.272;11.562;2024-01-06T06:41:45;3.90;99.90
4604;DHT22;2314;48.272;11.562;2024-01-06T06:44:12;3.90;99.90
4604;DHT22;2314;48.272;11.562;2024-01-06T06:46:39;3.90;99.90
4604;DHT22;2314;48.272;11.562;2024-01-06T06:49:06;3.90;99.90
4604;DHT22;2314;48.272;11.562;2024-01-06T06:51:33;3.90;99.90
4604;DHT22;2314;48.272;11.562;2024-01-06T06:54:00;3.90;99.90
4604;DHT22;2314;48.272;11.562;2024-01-06T06:56:27;3.90;99.90
4604;DHT22;2314;48.272;11.562;2024-01-06T06:58:55;4.00;99.90
4604;DHT22;2314;48.272;11.562;2024-01-06T07:01:22;4.00;99.90
4604;DHT22;2314;48.272;11.562;2024-01-06T07:03:49;4.10;99.90
4604;DHT22;2314;48.272;11.562;2024-01-06T07:06:16;4.10;99.90
4604;DHT22;2314;48.272;11.562;2024-01-06T07:08:43;4.10;99.90
4604;DHT22;2314;48.272;11.562;2024-01-06T07:11:10;4.10;99.90
4604;DHT22;2314;48.272;11.562;2024-01-06T07:13:40;4.10;99.90
4604;DHT22;2314;48.272;11.562;2024-01-06T07:16:08;4.00;99.90
4604;DHT22;2314;48.272;11.562;2024-01-06T07:18:37;4.00;99.90
4604;DHT22;2314;48.272;11.562;2024-01-06T07:21:04;4.10;99.90
4604;DHT22;2314;48.272;11.562;2024-01-06T07:23:33;4.10;99.90
4604;DHT22;2314;48.272;11.562;2024-01-06T07:26:00;4.10;99.90
4604;DHT22;2314;48.272;11.562;2024-01-06T07:28:27;4.20;99.90
4604;DHT22;2314;48.272;11.562;2024-01-06T07:30:55;4.20;99.90
4604;DHT22;2314;48.272;11.562;2024-01-06T07:33:23;4.20;99.90
4604;DHT22;2314;48.272;11.562;2024-01-06T07:35:51;4.20;99.90
4604;DHT22;2314;48.272;11.562;2024-01-06T07:38:18;4.20;99.90
4604;DHT22;2314;48.272;11.562;2024-01-06T07:40:45;4.30;99.90
4604;DHT22;2314;48.272;11.562;2024-01-06T07:43:12;4.30;99.90
4604;DHT22;2314;48.272;11.562;2024-01-06T07:45:41;4.30;99.90
4604;DHT22;2314;48.272;11.562;2024-01-06T07:48:08;4.30;99.90
4604;DHT22;2314;48.272;11.562;2024-01-06T07:50:36;4.30;99.90
4604;DHT22;2314;48.272;11.562;2024-01-06T07:53:03;4.30;99.90
4604;DHT22;2314;48.272;11.562;2024-01-06T07:55:30;4.30;99.90
4604;DHT22;2314;48.272;11.562;2024-01-06T07:57:57;4.30;99.90
4604;DHT22;2314;48.272;11.562;2024-01-06T08:00:24;4.30;99.90
4604;DHT22;2314;48.272;11.562;2024-01-06T08:02:51;4.30;99.90
4604;DHT22;2314;48.272;11.562;2024-01-06T08:05:18;4.30;99.90
4604;DHT22;2314;48.272;11.562;2024-01-06T08:07:46;4.30;99.90
4604;DHT22;2314;48.272;11.562;2024-01-06T08:10:13;4.30;99.90
4604;DHT22;2314;48.272;11.562;2024-01-06T08:12:40;4.30;99.90
4604;DHT22;2314;48.272;11.562;2024-01-06T08:15:08;4.40;99.90
4604;DHT22;2314;48.272;11.562;2024-01-06T08:17:35;4.40;99.90
4604;DHT22;2314;48.272;11.562;2024-01-06T08:20:03;4.40;99.90
4604;DHT22;2314;48.272;11.562;2024-01-06T08:22:31;4.40;99.90
4604;DHT22;2314;48.272;11.562;2024-01-06T08:24:59;4.40;99.90
4604;DHT22;2314;48.272;11.562;2024-01-06T08:27:28;4.50;99.90
4604;DHT22;2314;48.272;11.562;2024-01-06T08:29:55;4.50;99.90
4604;DHT22;2314;48.272;11.562;2024-01-06T08:32:22;4.50;99.90
4604;DHT22;2314;48.272;11.562;2024-01-06T08:34:49;4.50;99.90
4604;DHT22;2314;48.272;11.562;2024-01-06T08:37:16;4.60;99.90
4604;DHT22;2314;48.272;11.562;2024-01-06T08:39:43;4.60;99.90
4604;DHT22;2314;48.272;11.562;2024-01-06T08:42:11;4.60;99.90
4604;DHT22;2314;48.272;11.562;2024-01-06T08:44:38;4.70;99.90
4604;DHT22;2314;48.272;11.562;2024-01-06T08:47:05;4.70;99.90
4604;DHT22;2314;48.272;11.562;2024-01-06T08:49:32;4.70;99.90
4604;DHT22;2314;48.272;11.562;2024-01-06T08:51:59;4.80;99.90
4604;DHT22;2314;48.272;11.562;2024-01-06T08:54:26;4.80;99.90
4604;DHT22;2314;48.272;11.562;2024-01-06T08:56:54;4.90;99.90
4604;DHT22;2314;48.272;11.562;2024-01-06T08:59:23;4.90;99.90
4604;DHT22;2314;48.272;11.562;2024-01-06T09:01:50;4.90;99.90
4604;DHT22;2314;48.272;11.562;2024-01-06T09:04:18;5.00;99.90
4604;DHT22;2314;48.272;11.562;2024-01-06T09:06:45;5.00;99.90
4604;DHT22;2314;48.272;11.562;2024-01-06T09:09:14;5.00;99.90
4604;DHT22;2314;48.272;11.562;2024-01-06T09:11:41;5.10;99.90
4604;DHT22;2314;48.272;11.562;2024-01-06T09:14:09;5.10;99.90
4604;DHT22;2314;48.272;11.562;2024-01-06T09:16:38;5.10;99.90
4604;DHT22;2314;48.272;11.562;2024-01-06T09:19:05;5.10;99.90
4604;DHT22;2314;48.272;11.562;2024-01-06T09:21:33;5.10;99.90
4604;DHT22;2314;48.272;11.562;2024-01-06T09:24:01;5.10;99.90
4604;DHT22;2314;48.272;11.562;2024-01-06T09:26:31;5.10;99.90
4604;DHT22;2314;48.272;11.562;2024-01-06T09:28:59;5.10;99.90
4604;DHT22;2314;48.272;11.562;2024-01-06T09:31:26;5.10;99.90
4604;DHT22;2314;48.272;11.562;2024-01-06T09:33:54;5.10;99.90
4604;DHT22;2314;48.272;11.562;2024-01-06T09:36:21;5.10;99.90
4604;DHT22;2314;48.272;11.562;2024-01-06T09:38:48;5.10;99.90
4604;DHT22;2314;48.272;11.562;2024-01-06T09:41:15;5.20;99.90
4604;DHT22;2314;48.272;11.562;2024-01-06T09:43:42;5.20;99.90
4604;DHT22;2314;48.272;11.562;2024-01-06T09:46:15;5.20;99.90
4604;DHT22;2314;48.272;11.562;2024-01-06T09:48:51;5.20;99.90
4604;DHT22;2314;48.272;11.562;2024-01-06T09:51:21;5.20;99.90
4604;DHT22;2314;48.272;11.562;2024-01-06T09:53:52;5.30;99.90
4604;DHT22;2314;48.272;11.562;2024-01-06T09:56:24;5.30;99.90
4604;DHT22;2314;48.272;11.562;2024-01-06T09:58:52;5.30;99.90
4604;DHT22;2314;48.272;11.562;2024-01-06T10:01:19;5.20;99.90
4604;DHT22;2314;48.272;11.562;2024-01-06T10:03:47;5.20;99.90
4604;DHT22;2314;48.272;11.562;2024-01-06T10:06:15;5.20;99.90
4604;DHT22;2314;48.272;11.562;2024-01-06T10:08:44;5.30;99.90
4604;DHT22;2314;48.272;11.562;2024-01-06T10:11:11;5.30;99.90
4604;DHT22;2314;48.272;11.562;2024-01-06T10:13:38;5.30;99.90
4604;DHT22;2314;48.272;11.562;2024-01-06T10:16:05;5.30;99.90
4604;DHT22;2314;48.272;11.562;2024-01-06T10:18:33;5.30;99.90
4604;DHT22;2314;48.272;11.562;2024-01-06T10:21:03;5.30;99.90
4604;DHT22;2314;48.272;11.562;2024-01-06T10:23:31;5.30;99.90
4604;DHT22;2314;48.272;11.562;2024-01-06T10:26:00;5.30;99.90
4604;DHT22;2314;48.272;11.562;2024-01-06T10:28:27;5.30;99.90
4604;DHT22;2314;48.272;11.562;2024-01-06T10:30:55;5.30;99.90
4604;DHT22;2314;48.272;11.562;2024-01-06T10:33:24;5.40;99.90
4604;DHT22;2314;48.272;11.562;2024-01-06T10:35:53;5.40;99.90
4604;DHT22;2314;48.272;11.562;2024-01-06T10:38:21;5.50;99.90
4604;DHT22;2314;48.272;11.562;2024-01-06T10:40:57;5.50;99.90
4604;DHT22;2314;48.272;11.562;2024-01-06T10:43:27;5.50;99.90
4604;DHT22;2314;48.272;11.562;2024-01-06T10:45:56;5.50;99.90
4604;DHT22;2314;48.272;11.562;2024-01-06T10:48:24;5.60;99.90
4604;DHT22;2314;48.272;11.562;2024-01-06T10:50:53;5.50;99.90
4604;DHT22;2314;48.272;11.562;2024-01-06T10:53:21;5.60;99.90
4604;DHT22;2314;48.272;11.562;2024-01-06T10:55:49;5.60;99.90
4604;DHT22;2314;48.272;11.562;2024-01-06T10:58:17;5.60;99.90
4604;DHT22;2314;48.272;11.562;2024-01-06T11:00:47;5.70;99.90
4604;DHT22;2314;48.272;11.562;2024-01-06T11:03:14;5.70;99.90
4604;DHT22;2314;48.272;11.562;2024-01-06T11:05:41;5.70;99.90
4604;DHT22;2314;48.272;11.562;2024-01-06T11:08:09;5.70;99.90
4604;DHT22;2314;48.272;11.562;2024-01-06T11:10:38;5.60;99.90
4604;DHT22;2314;48.272;11.562;2024-01-06T11:13:09;5.50;99.90
4604;DHT22;2314;48.272;11.562;2024-01-06T11:15:42;5.50;99.90
4604;DHT22;2314;48.272;11.562;2024-01-06T11:18:30;5.50;99.90
4604;DHT22;2314;48.272;11.562;2024-01-06T11:21:19;5.50;99.90
4604;DHT22;2314;48.272;11.562;2024-01-06T11:24:13;5.50;99.90
4604;DHT22;2314;48.272;11.562;2024-01-06T11:26:43;5.50;99.90
4604;DHT22;2314;48.272;11.562;2024-01-06T11:29:11;5.50;99.90
4604;DHT22;2314;48.272;11.562;2024-01-06T11:31:38;5.40;99.90
4604;DHT22;2314;48.272;11.562;2024-01-06T11:34:15;5.30;99.90
4604;DHT22;2314;48.272;11.562;2024-01-06T11:36:45;5.10;99.90
4604;DHT22;2314;48.272;11.562;2024-01-06T11:39:33;5.10;99.90
4604;DHT22;2314;48.272;11.562;2024-01-06T11:42:01;5.10;99.90
4604;DHT22;2314;48.272;11.562;2024-01-06T11:44:28;5.10;99.90
4604;DHT22;2314;48.272;11.562;2024-01-06T11:46:56;5.10;99.90
4604;DHT22;2314;48.272;11.562;2024-01-06T11:49:26;5.10;99.90
4604;DHT22;2314;48.272;11.562;2024-01-06T11:51:54;5.10;99.90
4604;DHT22;2314;48.272;11.562;2024-01-06T11:54:21;5.10;99.90
4604;DHT22;2314;48.272;11.562;2024-01-06T11:56:48;5.00;99.90
4604;DHT22;2314;48.272;11.562;2024-01-06T11:59:15;5.00;99.90
4604;DHT22;2314;48.272;11.562;2024-01-06T12:01:42;4.90;99.90
4604;DHT22;2314;48.272;11.562;2024-01-06T12:04:13;4.90;99.90
4604;DHT22;2314;48.272;11.562;2024-01-06T12:06:43;5.00;99.90
4604;DHT22;2314;48.272;11.562;2024-01-06T12:09:11;5.00;99.90
4604;DHT22;2314;48.272;11.562;2024-01-06T12:11:41;5.10;99.90
4604;DHT22;2314;48.272;11.562;2024-01-06T12:14:10;5.10;99.90
4604;DHT22;2314;48.272;11.562;2024-01-06T12:16:37;5.00;99.90
4604;DHT22;2314;48.272;11.562;2024-01-06T12:19:04;5.10;99.90
4604;DHT22;2314;48.272;11.562;2024-01-06T12:21:31;5.10;99.90
4604;DHT22;2314;48.272;11.562;2024-01-06T12:24:20;5.10;99.90
4604;DHT22;2314;48.272;11.562;2024-01-06T12:26:48;5.10;99.90
4604;DHT22;2314;48.272;11.562;2024-01-06T12:29:17;5.00;99.90
4604;DHT22;2314;48.272;11.562;2024-01-06T12:31:44;5.10;99.90
4604;DHT22;2314;48.272;11.562;2024-01-06T12:34:11;5.00;99.90
4604;DHT22;2314;48.272;11.562;2024-01-06T12:36:39;5.00;99.90
4604;DHT22;2314;48.272;11.562;2024-01-06T12:39:10;5.00;99.90
4604;DHT22;2314;48.272;11.562;2024-01-06T12:41:40;4.90;99.90
4604;DHT22;2314;48.272;11.562;2024-01-06T12:44:08;4.90;99.90
4604;DHT22;2314;48.272;11.562;2024-01-06T12:46:35;4.90;99.90
4604;DHT22;2314;48.272;11.562;2024-01-06T12:49:02;4.90;99.90
4604;DHT22;2314;48.272;11.562;2024-01-06T12:51:29;4.90;99.90
4604;DHT22;2314;48.272;11.562;2024-01-06T12:53:56;4.90;99.90
4604;DHT22;2314;48.272;11.562;2024-01-06T12:56:23;4.90;99.90
4604;DHT22;2314;48.272;11.562;2024-01-06T12:58:52;5.00;99.90
4604;DHT22;2314;48.272;11.562;2024-01-06T13:01:19;5.00;99.90
4604;DHT22;2314;48.272;11.562;2024-01-06T13:03:46;4.90;99.90
4604;DHT22;2314;48.272;11.562;2024-01-06T13:06:13;5.00;99.90
4604;DHT22;2314;48.272;11.562;2024-01-06T13:08:41;4.90;99.90
4604;DHT22;2314;48.272;11.562;2024-01-06T13:11:09;4.80;99.90
4604;DHT22;2314;48.272;11.562;2024-01-06T13:13:36;4.80;99.90
4604;DHT22;2314;48.272;11.562;2024-01-06T13:16:05;4.80;99.90
4604;DHT22;2314;48.272;11.562;2024-01-06T13:18:32;4.80;99.90
4604;DHT22;2314;48.272;11.562;2024-01-06T13:20:59;4.70;99.90
4604;DHT22;2314;48.272;11.562;2024-01-06T13:23:27;4.70;99.90
4604;DHT22;2314;48.272;11.562;2024-01-06T13:25:54;4.80;99.90
4604;DHT22;2314;48.272;11.562;2024-01-06T13:28:22;4.70;99.90
4604;DHT22;2314;48.272;11.562;2024-01-06T13:30:50;4.60;99.90
4604;DHT22;2314;48.272;11.562;2024-01-06T13:33:18;4.50;99.90
4604;DHT22;2314;48.272;11.562;2024-01-06T13:35:46;4.50;99.90
4604;DHT22;2314;48.272;11.562;2024-01-06T13:38:13;4.40;99.90
4604;DHT22;2314;48.272;11.562;2024-01-06T13:40:40;4.30;99.90
4604;DHT22;2314;48.272;11.562;2024-01-06T13:43:07;4.30;99.90
4604;DHT22;2314;48.272;11.562;2024-01-06T13:45:41;4.20;99.90
4604;DHT22;2314;48.272;11.562;2024-01-06T13:48:09;4.20;99.90
4604;DHT22;2314;48.272;11.562;2024-01-06T13:50:38;4.20;99.90
4604;DHT22;2314;48.272;11.562;2024-01-06T13:53:05;4.20;99.90
4604;DHT22;2314;48.272;11.562;2024-01-06T13:55:32;4.20;99.90
4604;DHT22;2314;48.272;11.562;2024-01-06T13:58:00;4.20;99.90
4604;DHT22;2314;48.272;11.562;2024-01-06T14:00:27;4.10;99.90
4604;DHT22;2314;48.272;11.562;2024-01-06T14:02:54;4.00;99.90
4604;DHT22;2314;48.272;11.562;2024-01-06T14:05:21;4.00;99.90
4604;DHT22;2314;48.272;11.562;2024-01-06T14:07:50;3.90;99.90
4604;DHT22;2314;48.272;11.562;2024-01-06T14:10:17;3.80;99.90
4604;DHT22;2314;48.272;11.562;2024-01-06T14:12:44;3.80;99.90
4604;DHT22;2314;48.272;11.562;2024-01-06T14:15:11;3.80;99.90
4604;DHT22;2314;48.272;11.562;2024-01-06T14:17:38;3.70;99.90
4604;DHT22;2314;48.272;11.562;2024-01-06T14:20:07;3.60;99.90
4604;DHT22;2314;48.272;11.562;2024-01-06T14:22:38;3.50;99.90
4604;DHT22;2314;48.272;11.562;2024-01-06T14:25:07;3.50;99.90
4604;DHT22;2314;48.272;11.562;2024-01-06T14:27:34;3.60;99.90
4604;DHT22;2314;48.272;11.562;2024-01-06T14:30:01;3.50;99.90
4604;DHT22;2314;48.272;11.562;2024-01-06T14:32:29;3.60;99.90
4604;DHT22;2314;48.272;11.562;2024-01-06T14:34:58;3.60;99.90
4604;DHT22;2314;48.272;11.562;2024-01-06T14:37:27;3.70;99.90
4604;DHT22;2314;48.272;11.562;2024-01-06T14:39:54;3.60;99.90
4604;DHT22;2314;48.272;11.562;2024-01-06T14:42:22;3.60;99.90
4604;DHT22;2314;48.272;11.562;2024-01-06T14:44:49;3.60;99.90
4604;DHT22;2314;48.272;11.562;2024-01-06T14:47:16;3.60;99.90
4604;DHT22;2314;48.272;11.562;2024-01-06T14:49:43;3.70;99.90
4604;DHT22;2314;48.272;11.562;2024-01-06T14:52:10;3.80;99.90
4604;DHT22;2314;48.272;11.562;2024-01-06T14:54:37;3.80;99.90
4604;DHT22;2314;48.272;11.562;2024-01-06T14:57:04;3.90;99.90
4604;DHT22;2314;48.272;11.562;2024-01-06T14:59:33;3.80;99.90
4604;DHT22;2314;48.272;11.562;2024-01-06T15:02:02;3.70;99.90
4604;DHT22;2314;48.272;11.562;2024-01-06T15:04:29;3.70;99.90
4604;DHT22;2314;48.272;11.562;2024-01-06T15:06:56;3.70;99.90
4604;DHT22;2314;48.272;11.562;2024-01-06T15:09:23;3.60;99.90
4604;DHT22;2314;48.272;11.562;2024-01-06T15:11:52;3.50;99.90
4604;DHT22;2314;48.272;11.562;2024-01-06T15:14:19;3.50;99.90
4604;DHT22;2314;48.272;11.562;2024-01-06T15:16:47;3.50;99.90
4604;DHT22;2314;48.272;11.562;2024-01-06T15:19:14;3.50;99.90
4604;DHT22;2314;48.272;11.562;2024-01-06T15:21:41;3.50;99.90
4604;DHT22;2314;48.272;11.562;2024-01-06T15:24:08;3.40;99.90
4604;DHT22;2314;48.272;11.562;2024-01-06T15:26:35;3.40;99.90
4604;DHT22;2314;48.272;11.562;2024-01-06T15:29:02;3.40;99.90
4604;DHT22;2314;48.272;11.562;2024-01-06T15:31:30;3.30;99.90
4604;DHT22;2314;48.272;11.562;2024-01-06T15:33:59;3.30;99.90
4604;DHT22;2314;48.272;11.562;2024-01-06T15:36:26;3.30;99.90
4604;DHT22;2314;48.272;11.562;2024-01-06T15:38:53;3.30;99.90
4604;DHT22;2314;48.272;11.562;2024-01-06T15:41:20;3.30;99.90
4604;DHT22;2314;48.272;11.562;2024-01-06T15:43:47;3.30;99.90
4604;DHT22;2314;48.272;11.562;2024-01-06T15:46:14;3.30;99.90
4604;DHT22;2314;48.272;11.562;2024-01-06T15:48:42;3.20;99.90
4604;DHT22;2314;48.272;11.562;2024-01-06T15:51:11;3.20;99.90
4604;DHT22;2314;48.272;11.562;2024-01-06T15:53:38;3.20;99.90
4604;DHT22;2314;48.272;11.562;2024-01-06T15:56:06;3.20;99.90
4604;DHT22;2314;48.272;11.562;2024-01-06T15:58:32;3.20;99.90
4604;DHT22;2314;48.272;11.562;2024-01-06T16:00:59;3.20;99.90
4604;DHT22;2314;48.272;11.562;2024-01-06T16:03:26;3.10;99.90
4604;DHT22;2314;48.272;11.562;2024-01-06T16:05:53;3.20;99.90